createdAt,value
2018-08-27T00:00:05.581Z,58
2018-08-27T00:15:05.374Z,58.7
2018-08-27T00:30:05.471Z,58.6
2018-08-27T00:45:05.243Z,59.1
2018-08-27T01:00:05.138Z,59.4
2018-08-27T01:15:05.017Z,59.9
2018-08-27T01:30:05.135Z,60.4
2018-08-27T01:45:04.899Z,60.5
2018-08-27T02:00:05.097Z,60.9
2018-08-27T02:15:04.836Z,61.1
2018-08-27T02:30:05.539Z,62
2018-08-27T02:45:04.780Z,62
2018-08-27T03:00:04.854Z,62.7
2018-08-27T03:15:04.861Z,63.1
2018-08-27T03:30:04.977Z,63.6
2018-08-27T03:45:04.466Z,63.4
2018-08-27T04:00:05.166Z,64.3
2018-08-27T04:15:04.651Z,64.4
2018-08-27T04:30:05.364Z,64.5
2018-08-27T04:45:04.470Z,64.8
2018-08-27T05:00:04.421Z,65.1
2018-08-27T05:15:04.357Z,65.4
2018-08-27T05:45:04.321Z,65.8
2018-08-27T06:00:04.237Z,66.2
2018-08-27T06:15:04.897Z,66.2
2018-08-27T06:30:05.128Z,66.7
2018-08-27T06:45:05.060Z,66.3
2018-08-27T07:00:04.982Z,66.6
2018-08-27T07:15:04.559Z,66.2
2018-08-27T07:30:05.163Z,64.8
2018-08-27T07:45:05.121Z,66.2
2018-08-27T08:00:05.136Z,64.4
2018-08-27T08:15:05.153Z,62
2018-08-27T08:30:04.319Z,59.8
2018-08-27T08:45:04.726Z,59.6
2018-08-27T09:00:05.170Z,58.6
2018-08-27T09:15:04.633Z,58.2
2018-08-27T09:30:04.754Z,55.3
2018-08-27T09:45:05.167Z,53.8
2018-08-27T10:00:04.652Z,54
2018-08-27T10:15:04.867Z,54.6
2018-08-27T10:30:05.144Z,54
2018-08-27T10:45:04.637Z,54.5
2018-08-27T11:00:04.943Z,54
2018-08-27T11:15:05.109Z,53.8
2018-08-27T11:30:04.831Z,54.1
2018-08-27T11:45:04.927Z,53.3
2018-08-27T12:00:04.391Z,53.3
2018-08-27T12:15:04.816Z,52.7
2018-08-27T12:30:04.921Z,53.2
2018-08-27T12:45:04.431Z,53.2
2018-08-27T13:00:04.397Z,52.5
2018-08-27T13:15:04.817Z,52.3
2018-08-27T13:30:05.094Z,51.9
2018-08-27T13:45:04.677Z,52.4
2018-08-27T14:00:05.442Z,52.2
2018-08-27T14:15:05.718Z,52.7
2018-08-27T14:30:05.068Z,53
2018-08-27T14:45:05.228Z,53.3
2018-08-27T15:00:04.690Z,53
2018-08-27T15:15:05.330Z,52.9
2018-08-27T15:30:04.597Z,53.3
2018-08-27T15:45:05.202Z,53.2
2018-08-27T16:00:05.311Z,53.5
2018-08-27T16:15:05.623Z,53.5
2018-08-27T16:30:04.566Z,53.7
2018-08-27T16:45:05.396Z,53.9
2018-08-27T17:00:04.994Z,53.9
2018-08-27T17:15:05.327Z,54.1
2018-08-27T17:30:04.735Z,54.6
2018-08-27T17:45:10.258Z,55.3
2018-08-27T18:00:05.226Z,55.6
2018-08-27T18:15:05.319Z,56.1
2018-08-27T18:30:05.362Z,56.5
2018-08-27T18:45:04.863Z,57.3
2018-08-27T19:00:04.956Z,58
2018-08-27T19:15:04.734Z,58.4
2018-08-27T19:30:04.793Z,59
2018-08-27T19:45:04.923Z,59.3
2018-08-27T20:00:05.035Z,60
2018-08-27T20:15:04.465Z,60.6
2018-08-27T20:30:04.912Z,60.6
2018-08-27T20:45:04.810Z,60.7
2018-08-27T21:00:05.143Z,61.3
2018-08-27T21:15:04.879Z,61.4
2018-08-27T21:30:05.290Z,61.8
2018-08-27T21:45:08.896Z,61.9
2018-08-27T22:00:08.960Z,62.2
2018-08-27T22:15:05.080Z,62.3
2018-08-27T22:30:05.162Z,62.8
2018-08-27T22:45:04.606Z,62.9
2018-08-27T23:00:04.488Z,63.5
2018-08-27T23:15:05.127Z,63.9
2018-08-27T23:30:04.836Z,63.8
2018-08-27T23:45:04.456Z,64.1
